sensor_id;sensor_type;location;lat;lon;timestamp;P1;durP1;ratioP1;P2;durP2;ratioP2
55609;SDS011;41486;52.502;13.486;2023-10-13T00:00:35;3.50;;;2.35;;
55609;SDS011;41486;52.502;13.486;2023-10-13T00:03:04;4.57;;;2.42;;
55609;SDS011;41486;52.502;13.486;2023-10-13T00:05:33;4.60;;;2.00;;
55609;SDS011;41486;52.502;13.486;2023-10-13T00:08:02;4.28;;;2.70;;
55609;SDS011;41486;52.502;13.486;2023-10-13T00:10:31;5.00;;;2.35;;
55609;SDS011;41486;52.502;13.486;2023-10-13T00:13:00;4.28;;;2.20;;
55609;SDS011;41486;52.502;13.486;2023-10-13T00:15:40;4.07;;;2.20;;
55609;SDS011;41486;52.502;13.486;2023-10-13T00:18:23;5.20;;;2.75;;
55609;SDS011;41486;52.502;13.486;2023-10-13T00:20:53;4.70;;;1.95;;
55609;SDS011;41486;52.502;13.486;2023-10-13T00:23:23;2.70;;;1.80;;
55609;SDS011;41486;52.502;13.486;2023-10-13T00:25:53;2.58;;;2.00;;
55609;SDS011;41486;52.502;13.486;2023-10-13T00:28:26;4.78;;;2.13;;
55609;SDS011;41486;52.502;13.486;2023-10-13T00:31:04;6.07;;;2.53;;
55609;SDS011;41486;52.502;13.486;2023-10-13T00:33:38;5.38;;;2.25;;
55609;SDS011;41486;52.502;13.486;2023-10-13T00:36:08;3.30;;;1.52;;
55609;SDS011;41486;52.502;13.486;2023-10-13T00:38:45;7.15;;;2.22;;
55609;SDS011;41486;52.502;13.486;2023-10-13T00:41:15;3.30;;;1.60;;
55609;SDS011;41486;52.502;13.486;2023-10-13T00:43:44;5.72;;;2.10;;
55609;SDS011;41486;52.502;13.486;2023-10-13T00:46:32;3.55;;;1.65;;
55609;SDS011;41486;52.502;13.486;2023-10-13T00:49:02;6.10;;;2.88;;
55609;SDS011;41486;52.502;13.486;2023-10-13T00:51:32;3.40;;;1.70;;
55609;SDS011;41486;52.502;13.486;2023-10-13T00:54:02;6.28;;;2.30;;
55609;SDS011;41486;52.502;13.486;2023-10-13T00:56:36;2.72;;;1.90;;
55609;SDS011;41486;52.502;13.486;2023-10-13T00:59:08;3.08;;;1.90;;
55609;SDS011;41486;52.502;13.486;2023-10-13T01:01:41;3.80;;;2.15;;
55609;SDS011;41486;52.502;13.486;2023-10-13T01:04:10;4.90;;;2.58;;
55609;SDS011;41486;52.502;13.486;2023-10-13T01:06:41;2.80;;;1.52;;
55609;SDS011;41486;52.502;13.486;2023-10-13T01:09:10;2.92;;;1.85;;
55609;SDS011;41486;52.502;13.486;2023-10-13T01:11:39;2.28;;;1.60;;
55609;SDS011;41486;52.502;13.486;2023-10-13T01:14:09;2.80;;;1.83;;
55609;SDS011;41486;52.502;13.486;2023-10-13T01:16:37;5.55;;;1.95;;
55609;SDS011;41486;52.502;13.486;2023-10-13T01:19:11;4.38;;;2.42;;
55609;SDS011;41486;52.502;13.486;2023-10-13T01:21:39;4.43;;;1.80;;
55609;SDS011;41486;52.502;13.486;2023-10-13T01:24:10;3.67;;;1.88;;
55609;SDS011;41486;52.502;13.486;2023-10-13T01:26:40;3.97;;;2.35;;
55609;SDS011;41486;52.502;13.486;2023-10-13T01:29:09;2.78;;;1.75;;
55609;SDS011;41486;52.502;13.486;2023-10-13T01:31:40;7.53;;;2.60;;
55609;SDS011;41486;52.502;13.486;2023-10-13T01:34:14;2.30;;;1.75;;
55609;SDS011;41486;52.502;13.486;2023-10-13T01:36:49;2.45;;;1.63;;
55609;SDS011;41486;52.502;13.486;2023-10-13T01:39:20;4.20;;;1.92;;
55609;SDS011;41486;52.502;13.486;2023-10-13T01:41:53;3.85;;;1.90;;
55609;SDS011;41486;52.502;13.486;2023-10-13T01:44:23;3.75;;;2.10;;
55609;SDS011;41486;52.502;13.486;2023-10-13T01:46:51;6.97;;;2.47;;
55609;SDS011;41486;52.502;13.486;2023-10-13T01:49:20;5.13;;;2.58;;
55609;SDS011;41486;52.502;13.486;2023-10-13T01:51:49;5.80;;;2.08;;
55609;SDS011;41486;52.502;13.486;2023-10-13T01:54:17;6.50;;;2.67;;
55609;SDS011;41486;52.502;13.486;2023-10-13T01:56:46;7.72;;;2.80;;
55609;SDS011;41486;52.502;13.486;2023-10-13T01:59:16;4.82;;;2.33;;
55609;SDS011;41486;52.502;13.486;2023-10-13T02:01:44;6.43;;;2.60;;
55609;SDS011;41486;52.502;13.486;2023-10-13T02:04:12;4.30;;;2.13;;
55609;SDS011;41486;52.502;13.486;2023-10-13T02:06:41;5.13;;;2.60;;
55609;SDS011;41486;52.502;13.486;2023-10-13T02:09:09;4.95;;;2.25;;
55609;SDS011;41486;52.502;13.486;2023-10-13T02:11:39;5.28;;;2.78;;
55609;SDS011;41486;52.502;13.486;2023-10-13T02:14:09;6.40;;;2.72;;
55609;SDS011;41486;52.502;13.486;2023-10-13T02:16:38;4.60;;;2.58;;
55609;SDS011;41486;52.502;13.486;2023-10-13T02:19:07;6.97;;;3.10;;
55609;SDS011;41486;52.502;13.486;2023-10-13T02:21:35;8.23;;;2.78;;
55609;SDS011;41486;52.502;13.486;2023-10-13T02:24:10;5.68;;;3.08;;
55609;SDS011;41486;52.502;13.486;2023-10-13T02:26:40;5.53;;;3.40;;
55609;SDS011;41486;52.502;13.486;2023-10-13T02:29:10;5.95;;;2.40;;
55609;SDS011;41486;52.502;13.486;2023-10-13T02:31:40;4.70;;;2.63;;
55609;SDS011;41486;52.502;13.486;2023-10-13T02:34:21;6.93;;;3.10;;
55609;SDS011;41486;52.502;13.486;2023-10-13T02:36:49;7.35;;;3.30;;
55609;SDS011;41486;52.502;13.486;2023-10-13T02:39:19;7.18;;;2.95;;
55609;SDS011;41486;52.502;13.486;2023-10-13T02:41:53;4.22;;;2.72;;
55609;SDS011;41486;52.502;13.486;2023-10-13T02:44:23;8.38;;;3.22;;
55609;SDS011;41486;52.502;13.486;2023-10-13T02:46:54;5.95;;;3.35;;
55609;SDS011;41486;52.502;13.486;2023-10-13T02:49:23;8.13;;;3.55;;
55609;SDS011;41486;52.502;13.486;2023-10-13T02:51:53;6.05;;;3.05;;
55609;SDS011;41486;52.502;13.486;2023-10-13T02:54:22;7.65;;;3.13;;
55609;SDS011;41486;52.502;13.486;2023-10-13T02:56:53;5.72;;;3.35;;
55609;SDS011;41486;52.502;13.486;2023-10-13T02:59:26;6.18;;;3.28;;
55609;SDS011;41486;52.502;13.486;2023-10-13T03:02:01;11.05;;;3.72;;
55609;SDS011;41486;52.502;13.486;2023-10-13T03:04:46;9.38;;;3.15;;
55609;SDS011;41486;52.502;13.486;2023-10-13T03:07:13;7.90;;;3.58;;
55609;SDS011;41486;52.502;13.486;2023-10-13T03:09:49;6.53;;;3.72;;
55609;SDS011;41486;52.502;13.486;2023-10-13T03:12:18;5.97;;;3.85;;
55609;SDS011;41486;52.502;13.486;2023-10-13T03:14:49;6.95;;;4.38;;
55609;SDS011;41486;52.502;13.486;2023-10-13T03:17:21;7.80;;;4.50;;
55609;SDS011;41486;52.502;13.486;2023-10-13T03:20:03;6.60;;;3.58;;
55609;SDS011;41486;52.502;13.486;2023-10-13T03:22:33;9.37;;;4.30;;
55609;SDS011;41486;52.502;13.486;2023-10-13T03:25:01;7.50;;;4.10;;
55609;SDS011;41486;52.502;13.486;2023-10-13T03:27:32;9.45;;;4.68;;
55609;SDS011;41486;52.502;13.486;2023-10-13T03:30:11;8.40;;;4.15;;
55609;SDS011;41486;52.502;13.486;2023-10-13T03:32:42;8.82;;;4.57;;
55609;SDS011;41486;52.502;13.486;2023-10-13T03:35:13;10.57;;;4.57;;
55609;SDS011;41486;52.502;13.486;2023-10-13T03:37:51;11.10;;;5.00;;
55609;SDS011;41486;52.502;13.486;2023-10-13T03:40:19;6.15;;;4.13;;
55609;SDS011;41486;52.502;13.486;2023-10-13T03:43:04;9.23;;;4.20;;
55609;SDS011;41486;52.502;13.486;2023-10-13T03:45:41;13.07;;;5.10;;
55609;SDS011;41486;52.502;13.486;2023-10-13T03:48:14;8.88;;;5.35;;
55609;SDS011;41486;52.502;13.486;2023-10-13T03:50:56;11.90;;;6.32;;
55609;SDS011;41486;52.502;13.486;2023-10-13T03:53:29;12.48;;;5.88;;
55609;SDS011;41486;52.502;13.486;2023-10-13T03:56:00;9.88;;;5.38;;
55609;SDS011;41486;52.502;13.486;2023-10-13T03:58:41;8.60;;;4.78;;
55609;SDS011;41486;52.502;13.486;2023-10-13T04:01:14;9.55;;;5.90;;
55609;SDS011;41486;52.502;13.486;2023-10-13T04:03:44;9.07;;;5.45;;
55609;SDS011;41486;52.502;13.486;2023-10-13T04:06:30;11.10;;;6.40;;
55609;SDS011;41486;52.502;13.486;2023-10-13T04:09:15;8.80;;;5.82;;
55609;SDS011;41486;52.502;13.486;2023-10-13T04:12:01;15.00;;;6.30;;
55609;SDS011;41486;52.502;13.486;2023-10-13T04:15:08;9.73;;;5.70;;
55609;SDS011;41486;52.502;13.486;2023-10-13T04:17:46;10.93;;;6.20;;
55609;SDS011;41486;52.502;13.486;2023-10-13T04:20:15;16.38;;;7.03;;
55609;SDS011;41486;52.502;13.486;2023-10-13T04:22:59;15.90;;;7.18;;
55609;SDS011;41486;52.502;13.486;2023-10-13T04:25:45;13.57;;;6.65;;
55609;SDS011;41486;52.502;13.486;2023-10-13T04:28:31;11.68;;;7.03;;
55609;SDS011;41486;52.502;13.486;2023-10-13T04:31:04;13.65;;;7.00;;
55609;SDS011;41486;52.502;13.486;2023-10-13T04:33:52;11.02;;;6.57;;
55609;SDS011;41486;52.502;13.486;2023-10-13T04:36:27;12.60;;;6.88;;
55609;SDS011;41486;52.502;13.486;2023-10-13T04:39:11;14.65;;;8.20;;
55609;SDS011;41486;52.502;13.486;2023-10-13T04:41:55;13.97;;;6.33;;
55609;SDS011;41486;52.502;13.486;2023-10-13T04:44:39;11.82;;;7.55;;
55609;SDS011;41486;52.502;13.486;2023-10-13T04:47:19;12.38;;;7.28;;
55609;SDS011;41486;52.502;13.486;2023-10-13T04:49:50;10.75;;;7.38;;
55609;SDS011;41486;52.502;13.486;2023-10-13T04:52:19;11.68;;;7.20;;
55609;SDS011;41486;52.502;13.486;2023-10-13T04:55:05;12.55;;;7.35;;
55609;SDS011;41486;52.502;13.486;2023-10-13T04:57:44;10.70;;;7.38;;
55609;SDS011;41486;52.502;13.486;2023-10-13T05:00:16;13.82;;;8.25;;
55609;SDS011;41486;52.502;13.486;2023-10-13T05:03:01;13.07;;;8.82;;
55609;SDS011;41486;52.502;13.486;2023-10-13T05:06:07;17.60;;;9.90;;
55609;SDS011;41486;52.502;13.486;2023-10-13T05:08:40;12.55;;;7.53;;
55609;SDS011;41486;52.502;13.486;2023-10-13T05:11:25;14.00;;;9.05;;
55609;SDS011;41486;52.502;13.486;2023-10-13T05:14:11;14.38;;;8.45;;
55609;SDS011;41486;52.502;13.486;2023-10-13T05:16:56;15.18;;;7.65;;
55609;SDS011;41486;52.502;13.486;2023-10-13T05:19:41;13.73;;;7.10;;
55609;SDS011;41486;52.502;13.486;2023-10-13T05:22:31;12.35;;;7.13;;
55609;SDS011;41486;52.502;13.486;2023-10-13T05:25:20;11.13;;;7.32;;
55609;SDS011;41486;52.502;13.486;2023-10-13T05:28:06;15.15;;;9.43;;
55609;SDS011;41486;52.502;13.486;2023-10-13T05:31:02;13.40;;;8.13;;
55609;SDS011;41486;52.502;13.486;2023-10-13T05:33:48;15.10;;;7.97;;
55609;SDS011;41486;52.502;13.486;2023-10-13T05:36:34;11.65;;;7.07;;
55609;SDS011;41486;52.502;13.486;2023-10-13T05:39:21;14.48;;;8.98;;
55609;SDS011;41486;52.502;13.486;2023-10-13T05:42:06;16.50;;;11.32;;
55609;SDS011;41486;52.502;13.486;2023-10-13T05:44:51;14.57;;;9.02;;
55609;SDS011;41486;52.502;13.486;2023-10-13T05:47:44;10.75;;;7.95;;
55609;SDS011;41486;52.502;13.486;2023-10-13T05:50:17;14.25;;;7.20;;
55609;SDS011;41486;52.502;13.486;2023-10-13T05:53:11;14.73;;;8.30;;
55609;SDS011;41486;52.502;13.486;2023-10-13T05:56:01;11.30;;;7.65;;
55609;SDS011;41486;52.502;13.486;2023-10-13T05:58:47;9.35;;;6.57;;
55609;SDS011;41486;52.502;13.486;2023-10-13T06:01:32;12.93;;;7.38;;
55609;SDS011;41486;52.502;13.486;2023-10-13T06:04:18;10.68;;;7.00;;
55609;SDS011;41486;52.502;13.486;2023-10-13T06:07:03;9.35;;;6.68;;
55609;SDS011;41486;52.502;13.486;2023-10-13T06:09:49;11.38;;;7.20;;
55609;SDS011;41486;52.502;13.486;2023-10-13T06:12:38;9.82;;;7.40;;
55609;SDS011;41486;52.502;13.486;2023-10-13T06:15:23;8.05;;;6.32;;
55609;SDS011;41486;52.502;13.486;2023-10-13T06:18:08;10.35;;;7.00;;
55609;SDS011;41486;52.502;13.486;2023-10-13T06:20:54;13.52;;;8.32;;
55609;SDS011;41486;52.502;13.486;2023-10-13T06:23:40;11.13;;;7.22;;
55609;SDS011;41486;52.502;13.486;2023-10-13T06:26:25;10.85;;;7.78;;
55609;SDS011;41486;52.502;13.486;2023-10-13T06:29:11;13.20;;;10.18;;
55609;SDS011;41486;52.502;13.486;2023-10-13T06:31:47;9.05;;;6.70;;
55609;SDS011;41486;52.502;13.486;2023-10-13T06:34:15;14.63;;;8.20;;
55609;SDS011;41486;52.502;13.486;2023-10-13T06:36:47;11.75;;;7.07;;
55609;SDS011;41486;52.502;13.486;2023-10-13T06:39:15;12.00;;;6.88;;
55609;SDS011;41486;52.502;13.486;2023-10-13T06:42:01;11.82;;;7.90;;
55609;SDS011;41486;52.502;13.486;2023-10-13T06:44:31;12.10;;;7.05;;
55609;SDS011;41486;52.502;13.486;2023-10-13T06:47:00;14.82;;;7.75;;
55609;SDS011;41486;52.502;13.486;2023-10-13T06:49:31;10.23;;;7.10;;
55609;SDS011;41486;52.502;13.486;2023-10-13T06:52:05;17.90;;;9.45;;
55609;SDS011;41486;52.502;13.486;2023-10-13T06:54:34;11.48;;;6.18;;
55609;SDS011;41486;52.502;13.486;2023-10-13T06:57:03;11.98;;;8.35;;
55609;SDS011;41486;52.502;13.486;2023-10-13T06:59:38;11.55;;;7.07;;
55609;SDS011;41486;52.502;13.486;2023-10-13T07:02:08;16.10;;;7.38;;
55609;SDS011;41486;52.502;13.486;2023-10-13T07:04:54;8.10;;;5.90;;
55609;SDS011;41486;52.502;13.486;2023-10-13T07:07:34;10.75;;;6.65;;
55609;SDS011;41486;52.502;13.486;2023-10-13T07:10:07;8.35;;;6.18;;
55609;SDS011;41486;52.502;13.486;2023-10-13T07:12:36;9.10;;;5.75;;
55609;SDS011;41486;52.502;13.486;2023-10-13T07:15:11;9.27;;;6.53;;
55609;SDS011;41486;52.502;13.486;2023-10-13T07:17:46;11.35;;;6.57;;
55609;SDS011;41486;52.502;13.486;2023-10-13T07:20:21;9.80;;;5.55;;
55609;SDS011;41486;52.502;13.486;2023-10-13T07:23:05;9.48;;;5.75;;
55609;SDS011;41486;52.502;13.486;2023-10-13T07:25:36;9.68;;;5.75;;
55609;SDS011;41486;52.502;13.486;2023-10-13T07:28:07;8.75;;;6.70;;
55609;SDS011;41486;52.502;13.486;2023-10-13T07:30:38;8.98;;;5.20;;
55609;SDS011;41486;52.502;13.486;2023-10-13T07:33:16;11.23;;;6.97;;
55609;SDS011;41486;52.502;13.486;2023-10-13T07:35:47;12.25;;;7.57;;
55609;SDS011;41486;52.502;13.486;2023-10-13T07:38:17;17.58;;;10.98;;
55609;SDS011;41486;52.502;13.486;2023-10-13T07:40:47;11.00;;;7.13;;
55609;SDS011;41486;52.502;13.486;2023-10-13T07:43:18;11.93;;;7.78;;
55609;SDS011;41486;52.502;13.486;2023-10-13T07:45:49;9.20;;;5.65;;
55609;SDS011;41486;52.502;13.486;2023-10-13T07:48:25;6.82;;;5.00;;
55609;SDS011;41486;52.502;13.486;2023-10-13T07:50:58;5.25;;;4.30;;
55609;SDS011;41486;52.502;13.486;2023-10-13T07:53:30;8.00;;;4.55;;
55609;SDS011;41486;52.502;13.486;2023-10-13T07:56:04;7.10;;;4.32;;
55609;SDS011;41486;52.502;13.486;2023-10-13T07:58:35;6.75;;;4.05;;
55609;SDS011;41486;52.502;13.486;2023-10-13T08:01:15;7.78;;;4.65;;
55609;SDS011;41486;52.502;13.486;2023-10-13T08:03:46;5.82;;;3.95;;
55609;SDS011;41486;52.502;13.486;2023-10-13T08:06:35;5.53;;;4.07;;
55609;SDS011;41486;52.502;13.486;2023-10-13T08:09:04;7.38;;;4.40;;
55609;SDS011;41486;52.502;13.486;2023-10-13T08:11:56;6.55;;;4.03;;
55609;SDS011;41486;52.502;13.486;2023-10-13T08:14:24;5.30;;;3.42;;
55609;SDS011;41486;52.502;13.486;2023-10-13T08:17:06;7.90;;;5.05;;
55609;SDS011;41486;52.502;13.486;2023-10-13T08:19:37;6.60;;;4.68;;
55609;SDS011;41486;52.502;13.486;2023-10-13T08:22:12;7.68;;;4.75;;
55609;SDS011;41486;52.502;13.486;2023-10-13T08:25:02;7.28;;;3.90;;
55609;SDS011;41486;52.502;13.486;2023-10-13T08:27:47;6.90;;;4.38;;
55609;SDS011;41486;52.502;13.486;2023-10-13T08:30:29;7.85;;;4.03;;
55609;SDS011;41486;52.502;13.486;2023-10-13T08:32:59;8.30;;;4.38;;
55609;SDS011;41486;52.502;13.486;2023-10-13T08:35:43;5.13;;;4.00;;
55609;SDS011;41486;52.502;13.486;2023-10-13T08:38:42;7.38;;;4.00;;
55609;SDS011;41486;52.502;13.486;2023-10-13T08:41:18;6.80;;;3.75;;
55609;SDS011;41486;52.502;13.486;2023-10-13T08:44:01;4.93;;;3.65;;
55609;SDS011;41486;52.502;13.486;2023-10-13T08:46:31;7.57;;;4.10;;
55609;SDS011;41486;52.502;13.486;2023-10-13T08:49:20;4.30;;;3.03;;
55609;SDS011;41486;52.502;13.486;2023-10-13T08:51:50;7.03;;;3.75;;
55609;SDS011;41486;52.502;13.486;2023-10-13T08:54:53;4.72;;;3.25;;
55609;SDS011;41486;52.502;13.486;2023-10-13T08:57:40;6.28;;;4.20;;
55609;SDS011;41486;52.502;13.486;2023-10-13T09:00:16;4.95;;;3.92;;
55609;SDS011;41486;52.502;13.486;2023-10-13T09:03:17;6.53;;;3.72;;
55609;SDS011;41486;52.502;13.486;2023-10-13T09:05:57;5.22;;;4.15;;
55609;SDS011;41486;52.502;13.486;2023-10-13T09:08:29;4.57;;;3.13;;
55609;SDS011;41486;52.502;13.486;2023-10-13T09:11:02;4.50;;;3.40;;
55609;SDS011;41486;52.502;13.486;2023-10-13T09:13:40;4.60;;;3.30;;
55609;SDS011;41486;52.502;13.486;2023-10-13T09:16:13;4.70;;;3.33;;
55609;SDS011;41486;52.502;13.486;2023-10-13T09:19:09;4.55;;;3.65;;
55609;SDS011;41486;52.502;13.486;2023-10-13T09:21:40;9.20;;;3.30;;
55609;SDS011;41486;52.502;13.486;2023-10-13T09:24:14;5.10;;;3.83;;
55609;SDS011;41486;52.502;13.486;2023-10-13T09:26:50;5.93;;;3.47;;
55609;SDS011;41486;52.502;13.486;2023-10-13T09:29:22;5.38;;;3.53;;
55609;SDS011;41486;52.502;13.486;2023-10-13T09:31:58;4.68;;;3.17;;
55609;SDS011;41486;52.502;13.486;2023-10-13T09:34:33;5.40;;;4.30;;
55609;SDS011;41486;52.502;13.486;2023-10-13T09:37:03;4.13;;;3.20;;
55609;SDS011;41486;52.502;13.486;2023-10-13T09:39:33;4.55;;;3.70;;
55609;SDS011;41486;52.502;13.486;2023-10-13T09:42:11;4.40;;;3.45;;
55609;SDS011;41486;52.502;13.486;2023-10-13T09:44:44;4.97;;;3.45;;
55609;SDS011;41486;52.502;13.486;2023-10-13T09:47:20;3.60;;;3.08;;
55609;SDS011;41486;52.502;13.486;2023-10-13T09:49:58;5.13;;;3.30;;
55609;SDS011;41486;52.502;13.486;2023-10-13T09:52:32;5.13;;;3.75;;
55609;SDS011;41486;52.502;13.486;2023-10-13T09:55:17;7.10;;;3.65;;
55609;SDS011;41486;52.502;13.486;2023-10-13T09:57:54;5.07;;;3.15;;
55609;SDS011;41486;52.502;13.486;2023-10-13T10:00:37;5.25;;;3.38;;
55609;SDS011;41486;52.502;13.486;2023-10-13T10:03:23;6.55;;;3.33;;
55609;SDS011;41486;52.502;13.486;2023-10-13T10:06:07;4.57;;;3.13;;
55609;SDS011;41486;52.502;13.486;2023-10-13T10:08:47;4.90;;;3.50;;
55609;SDS011;41486;52.502;13.486;2023-10-13T10:11:20;5.95;;;3.50;;
55609;SDS011;41486;52.502;13.486;2023-10-13T10:14:01;5.00;;;3.40;;
55609;SDS011;41486;52.502;13.486;2023-10-13T10:16:41;5.57;;;3.40;;
55609;SDS011;41486;52.502;13.486;2023-10-13T10:19:15;4.55;;;3.00;;
55609;SDS011;41486;52.502;13.486;2023-10-13T10:21:45;6.00;;;3.15;;
55609;SDS011;41486;52.502;13.486;2023-10-13T10:24:16;4.97;;;3.72;;
55609;SDS011;41486;52.502;13.486;2023-10-13T10:26:51;3.88;;;3.05;;
55609;SDS011;41486;52.502;13.486;2023-10-13T10:29:19;5.20;;;3.42;;
55609;SDS011;41486;52.502;13.486;2023-10-13T10:31:47;4.28;;;3.15;;
55609;SDS011;41486;52.502;13.486;2023-10-13T10:34:17;8.68;;;4.90;;
55609;SDS011;41486;52.502;13.486;2023-10-13T10:36:53;4.90;;;3.17;;
55609;SDS011;41486;52.502;13.486;2023-10-13T10:39:34;6.03;;;3.60;;
55609;SDS011;41486;52.502;13.486;2023-10-13T10:42:12;7.28;;;3.20;;
55609;SDS011;41486;52.502;13.486;2023-10-13T10:44:44;4.82;;;3.53;;
55609;SDS011;41486;52.502;13.486;2023-10-13T10:47:21;4.88;;;3.45;;
55609;SDS011;41486;52.502;13.486;2023-10-13T10:50:00;5.13;;;3.10;;
55609;SDS011;41486;52.502;13.486;2023-10-13T10:55:05;4.78;;;3.22;;
55609;SDS011;41486;52.502;13.486;2023-10-13T10:57:39;5.30;;;3.70;;
55609;SDS011;41486;52.502;13.486;2023-10-13T11:00:17;6.28;;;3.60;;
55609;SDS011;41486;52.502;13.486;2023-10-13T11:02:53;5.32;;;3.55;;
55609;SDS011;41486;52.502;13.486;2023-10-13T11:05:22;7.63;;;3.40;;
55609;SDS011;41486;52.502;13.486;2023-10-13T11:07:51;5.95;;;4.45;;
55609;SDS011;41486;52.502;13.486;2023-10-13T11:10:21;9.88;;;4.30;;
55609;SDS011;41486;52.502;13.486;2023-10-13T11:12:55;5.13;;;3.83;;
55609;SDS011;41486;52.502;13.486;2023-10-13T11:15:41;5.60;;;3.80;;
55609;SDS011;41486;52.502;13.486;2023-10-13T11:18:11;6.70;;;4.80;;
55609;SDS011;41486;52.502;13.486;2023-10-13T11:20:45;4.78;;;3.08;;
55609;SDS011;41486;52.502;13.486;2023-10-13T11:23:16;7.15;;;4.35;;
55609;SDS011;41486;52.502;13.486;2023-10-13T11:25:45;5.90;;;3.55;;
55609;SDS011;41486;52.502;13.486;2023-10-13T11:28:15;6.40;;;3.42;;
55609;SDS011;41486;52.502;13.486;2023-10-13T11:30:46;5.93;;;3.70;;
55609;SDS011;41486;52.502;13.486;2023-10-13T11:33:17;4.40;;;3.72;;
55609;SDS011;41486;52.502;13.486;2023-10-13T11:35:50;5.65;;;4.05;;
55609;SDS011;41486;52.502;13.486;2023-10-13T11:38:25;5.15;;;3.67;;
55609;SDS011;41486;52.502;13.486;2023-10-13T11:40:56;4.00;;;3.40;;
55609;SDS011;41486;52.502;13.486;2023-10-13T11:43:49;6.60;;;3.72;;
55609;SDS011;41486;52.502;13.486;2023-10-13T11:46:38;6.10;;;4.50;;
55609;SDS011;41486;52.502;13.486;2023-10-13T11:49:47;4.55;;;3.22;;
55609;SDS011;41486;52.502;13.486;2023-10-13T11:52:15;8.85;;;4.13;;
55609;SDS011;41486;52.502;13.486;2023-10-13T11:54:43;6.07;;;3.63;;
55609;SDS011;41486;52.502;13.486;2023-10-13T11:57:15;6.80;;;3.33;;
55609;SDS011;41486;52.502;13.486;2023-10-13T11:59:46;6.28;;;3.25;;
55609;SDS011;41486;52.502;13.486;2023-10-13T12:02:22;7.53;;;3.53;;
55609;SDS011;41486;52.502;13.486;2023-10-13T12:05:08;4.88;;;3.47;;
55609;SDS011;41486;52.502;13.486;2023-10-13T12:07:39;5.95;;;2.78;;
55609;SDS011;41486;52.502;13.486;2023-10-13T12:10:12;5.05;;;3.60;;
55609;SDS011;41486;52.502;13.486;2023-10-13T12:12:48;6.97;;;3.58;;
55609;SDS011;41486;52.502;13.486;2023-10-13T12:15:20;7.97;;;3.47;;
55609;SDS011;41486;52.502;13.486;2023-10-13T12:18:04;5.90;;;2.85;;
55609;SDS011;41486;52.502;13.486;2023-10-13T12:20:32;5.03;;;3.03;;
55609;SDS011;41486;52.502;13.486;2023-10-13T12:23:02;5.70;;;2.88;;
55609;SDS011;41486;52.502;13.486;2023-10-13T12:25:43;9.73;;;3.50;;
55609;SDS011;41486;52.502;13.486;2023-10-13T12:28:34;5.78;;;3.13;;
55609;SDS011;41486;52.502;13.486;2023-10-13T12:31:07;4.20;;;3.05;;
55609;SDS011;41486;52.502;13.486;2023-10-13T12:33:38;6.45;;;3.55;;
55609;SDS011;41486;52.502;13.486;2023-10-13T12:36:08;4.10;;;2.72;;
55609;SDS011;41486;52.502;13.486;2023-10-13T12:38:53;7.72;;;3.30;;
55609;SDS011;41486;52.502;13.486;2023-10-13T12:41:39;8.65;;;3.17;;
55609;SDS011;41486;52.502;13.486;2023-10-13T12:44:26;5.40;;;3.13;;
55609;SDS011;41486;52.502;13.486;2023-10-13T12:47:14;4.22;;;2.97;;
55609;SDS011;41486;52.502;13.486;2023-10-13T12:50:00;5.15;;;2.97;;
55609;SDS011;41486;52.502;13.486;2023-10-13T12:52:40;7.00;;;3.00;;
55609;SDS011;41486;52.502;13.486;2023-10-13T12:55:12;10.60;;;2.80;;
55609;SDS011;41486;52.502;13.486;2023-10-13T12:57:41;7.38;;;3.83;;
55609;SDS011;41486;52.502;13.486;2023-10-13T13:00:12;8.75;;;3.28;;
55609;SDS011;41486;52.502;13.486;2023-10-13T13:02:52;6.65;;;2.80;;
55609;SDS011;41486;52.502;13.486;2023-10-13T13:05:23;7.78;;;3.08;;
55609;SDS011;41486;52.502;13.486;2023-10-13T13:07:55;9.10;;;3.03;;
55609;SDS011;41486;52.502;13.486;2023-10-13T13:10:23;4.03;;;3.33;;
55609;SDS011;41486;52.502;13.486;2023-10-13T13:13:03;6.85;;;3.65;;
55609;SDS011;41486;52.502;13.486;2023-10-13T13:15:33;7.88;;;3.00;;
55609;SDS011;41486;52.502;13.486;2023-10-13T13:18:01;5.13;;;3.38;;
55609;SDS011;41486;52.502;13.486;2023-10-13T13:20:38;6.65;;;3.03;;
55609;SDS011;41486;52.502;13.486;2023-10-13T13:23:20;5.32;;;3.05;;
55609;SDS011;41486;52.502;13.486;2023-10-13T13:25:52;6.70;;;3.13;;
55609;SDS011;41486;52.502;13.486;2023-10-13T13:28:24;6.45;;;3.03;;
55609;SDS011;41486;52.502;13.486;2023-10-13T13:30:57;6.90;;;3.20;;
55609;SDS011;41486;52.502;13.486;2023-10-13T13:33:25;5.85;;;2.90;;
55609;SDS011;41486;52.502;13.486;2023-10-13T13:35:53;5.20;;;2.65;;
55609;SDS011;41486;52.502;13.486;2023-10-13T13:38:26;8.00;;;2.70;;
55609;SDS011;41486;52.502;13.486;2023-10-13T13:40:58;5.72;;;2.63;;
55609;SDS011;41486;52.502;13.486;2023-10-13T13:43:28;4.40;;;2.90;;
55609;SDS011;41486;52.502;13.486;2023-10-13T13:46:06;7.32;;;2.83;;
55609;SDS011;41486;52.502;13.486;2023-10-13T13:48:37;6.05;;;2.55;;
55609;SDS011;41486;52.502;13.486;2023-10-13T13:51:08;6.22;;;2.80;;
55609;SDS011;41486;52.502;13.486;2023-10-13T13:53:42;5.03;;;3.20;;
55609;SDS011;41486;52.502;13.486;2023-10-13T13:56:14;5.53;;;2.67;;
55609;SDS011;41486;52.502;13.486;2023-10-13T13:58:45;7.72;;;3.05;;
55609;SDS011;41486;52.502;13.486;2023-10-13T14:01:15;3.88;;;2.90;;
55609;SDS011;41486;52.502;13.486;2023-10-13T14:03:46;5.45;;;2.50;;
55609;SDS011;41486;52.502;13.486;2023-10-13T14:06:17;8.77;;;2.90;;
55609;SDS011;41486;52.502;13.486;2023-10-13T14:08:47;6.35;;;2.70;;
55609;SDS011;41486;52.502;13.486;2023-10-13T14:11:17;4.60;;;2.75;;
55609;SDS011;41486;52.502;13.486;2023-10-13T14:14:03;4.13;;;2.70;;
55609;SDS011;41486;52.502;13.486;2023-10-13T14:16:39;9.02;;;2.58;;
55609;SDS011;41486;52.502;13.486;2023-10-13T14:19:12;7.90;;;3.20;;
55609;SDS011;41486;52.502;13.486;2023-10-13T14:21:45;4.32;;;2.78;;
55609;SDS011;41486;52.502;13.486;2023-10-13T14:24:20;8.43;;;2.63;;
55609;SDS011;41486;52.502;13.486;2023-10-13T14:26:53;5.63;;;2.78;;
55609;SDS011;41486;52.502;13.486;2023-10-13T14:29:22;5.38;;;2.38;;
55609;SDS011;41486;52.502;13.486;2023-10-13T14:31:55;4.47;;;2.78;;
55609;SDS011;41486;52.502;13.486;2023-10-13T14:34:23;5.70;;;3.00;;
55609;SDS011;41486;52.502;13.486;2023-10-13T14:36:52;4.57;;;2.55;;
55609;SDS011;41486;52.502;13.486;2023-10-13T14:39:21;5.22;;;3.05;;
55609;SDS011;41486;52.502;13.486;2023-10-13T14:41:56;5.85;;;2.85;;
55609;SDS011;41486;52.502;13.486;2023-10-13T14:44:26;7.00;;;3.08;;
55609;SDS011;41486;52.502;13.486;2023-10-13T14:46:56;5.95;;;2.95;;
55609;SDS011;41486;52.502;13.486;2023-10-13T14:49:24;4.75;;;2.58;;
55609;SDS011;41486;52.502;13.486;2023-10-13T14:51:52;6.03;;;2.72;;
55609;SDS011;41486;52.502;13.486;2023-10-13T14:54:21;5.70;;;2.67;;
55609;SDS011;41486;52.502;13.486;2023-10-13T14:56:59;5.20;;;3.67;;
55609;SDS011;41486;52.502;13.486;2023-10-13T14:59:29;7.90;;;2.78;;
55609;SDS011;41486;52.502;13.486;2023-10-13T15:02:01;6.30;;;2.80;;
55609;SDS011;41486;52.502;13.486;2023-10-13T15:04:30;9.05;;;3.20;;
55609;SDS011;41486;52.502;13.486;2023-10-13T15:07:00;4.35;;;2.67;;
55609;SDS011;41486;52.502;13.486;2023-10-13T15:09:29;7.95;;;3.10;;
55609;SDS011;41486;52.502;13.486;2023-10-13T15:11:58;6.50;;;3.28;;
55609;SDS011;41486;52.502;13.486;2023-10-13T15:14:25;11.80;;;4.20;;
55609;SDS011;41486;52.502;13.486;2023-10-13T15:16:53;6.00;;;3.17;;
55609;SDS011;41486;52.502;13.486;2023-10-13T15:19:28;7.97;;;3.83;;
55609;SDS011;41486;52.502;13.486;2023-10-13T15:22:02;11.35;;;4.95;;